createdAt,value
2019-01-18T00:01:05.540Z,98743.58
2019-01-18T00:03:12.385Z,98743.45
2019-01-18T00:05:19.207Z,98744.94
2019-01-18T00:07:28.292Z,98748.28
2019-01-18T00:09:35.031Z,98754.53
2019-01-18T00:11:41.883Z,98753.84
2019-01-18T00:13:48.817Z,98770.64
2019-01-18T00:15:55.649Z,98776.59
2019-01-18T00:18:02.531Z,98765.22
2019-01-18T00:20:09.949Z,98780.95
2019-01-18T00:22:16.777Z,98781.94
2019-01-18T00:24:23.654Z,98784.72
2019-01-18T00:26:31.691Z,98791.80
2019-01-18T00:28:38.878Z,98796.16
2019-01-18T00:30:46.276Z,98792.33
2019-01-18T00:32:53.662Z,98789.84
2019-01-18T00:35:00.454Z,98795.14
2019-01-18T00:37:07.394Z,98798.97
2019-01-18T00:39:14.190Z,98795.33
2019-01-18T00:41:21.555Z,98792.49
2019-01-18T00:43:28.936Z,98796.63
2019-01-18T00:45:35.725Z,98793.16
2019-01-18T00:47:43.199Z,98794.08
2019-01-18T00:49:50.104Z,98793.91
2019-01-18T00:51:57.384Z,98787.50
2019-01-18T00:54:04.764Z,98792.09
2019-01-18T00:56:12.851Z,98792.27
2019-01-18T00:58:20.053Z,98789.84
2019-01-18T01:00:30.824Z,98789.91
2019-01-18T01:02:38.278Z,98788.19
2019-01-18T01:04:46.025Z,98789.84
2019-01-18T01:06:52.921Z,98788.05
2019-01-18T01:08:59.867Z,98792.84
2019-01-18T01:11:07.385Z,98797.67
2019-01-18T01:13:14.159Z,98802.38
2019-01-18T01:15:21.754Z,98798.45
2019-01-18T01:17:28.638Z,98806.43
2019-01-18T01:19:36.109Z,98797.44
2019-01-18T01:21:43.324Z,98803.85
2019-01-18T01:23:50.082Z,98815.22
2019-01-18T01:25:57.446Z,98808.97
2019-01-18T01:28:04.430Z,98817.35
2019-01-18T01:30:18.312Z,98821.19
2019-01-18T01:32:25.186Z,98830.88
2019-01-18T01:34:32.723Z,98828.06
2019-01-18T01:36:40.271Z,98817.28
2019-01-18T01:38:47.074Z,98824.00
2019-01-18T01:40:54.452Z,98824.41
2019-01-18T01:43:01.847Z,98820.04
2019-01-18T01:45:10.061Z,98822.05
2019-01-18T01:47:16.891Z,98820.12
2019-01-18T01:49:23.758Z,98821.72
2019-01-18T01:51:30.881Z,98811.87
2019-01-18T01:53:37.736Z,98807.05
2019-01-18T01:55:45.355Z,98801.07
2019-01-18T01:57:52.833Z,98797.08
2019-01-18T02:00:00.881Z,98789.11
2019-01-18T02:02:08.252Z,98801.12
2019-01-18T02:04:15.091Z,98800.34
2019-01-18T02:06:22.095Z,98798.77
2019-01-18T02:08:30.165Z,98790.14
2019-01-18T02:10:37.032Z,98786.23
2019-01-18T02:12:43.849Z,98788.63
2019-01-18T02:14:51.823Z,98788.83
2019-01-18T02:16:59.165Z,98789.72
2019-01-18T02:19:07.142Z,98791.09
2019-01-18T02:21:14.621Z,98800.18
2019-01-18T02:23:22.222Z,98812.35
2019-01-18T02:25:30.203Z,98808.19
2019-01-18T02:27:37.457Z,98811.86
2019-01-18T02:29:45.630Z,98802.02
2019-01-18T02:31:52.968Z,98802.80
2019-01-18T02:34:00.391Z,98800.50
2019-01-18T02:36:07.706Z,98796.09
2019-01-18T02:38:15.622Z,98803.58
2019-01-18T02:40:23.113Z,98809.06
2019-01-18T02:42:30.331Z,98809.73
2019-01-18T02:44:38.167Z,98807.33
2019-01-18T02:46:45.484Z,98795.16
2019-01-18T02:48:52.744Z,98803.80
2019-01-18T02:51:00.138Z,98801.28
2019-01-18T02:53:07.542Z,98797.86
2019-01-18T02:55:15.189Z,98796.61
2019-01-18T02:57:22.634Z,98803.73
2019-01-18T02:59:29.948Z,98812.27
2019-01-18T03:01:37.120Z,98810.97
2019-01-18T03:03:44.903Z,98806.14
2019-01-18T03:05:52.205Z,98806.16
2019-01-18T03:08:00.673Z,98812.09
2019-01-18T03:10:12.255Z,98813.97
2019-01-18T03:12:20.293Z,98813.36
2019-01-18T03:14:28.342Z,98819.60
2019-01-18T03:16:36.169Z,98815.41
2019-01-18T03:18:44.458Z,98804.51
2019-01-18T03:20:52.409Z,98809.31
2019-01-18T03:23:00.144Z,98809.72
2019-01-18T03:25:09.161Z,98806.71
2019-01-18T03:27:16.925Z,98802.13
2019-01-18T03:29:26.482Z,98802.88
2019-01-18T03:31:33.874Z,98797.61
2019-01-18T03:33:41.958Z,98801.46
2019-01-18T03:35:49.378Z,98811.89
2019-01-18T03:37:56.825Z,98809.03
2019-01-18T03:40:04.323Z,98824.20
2019-01-18T03:42:12.638Z,98821.13
2019-01-18T03:44:19.934Z,98829.88
2019-01-18T03:46:27.192Z,98825.61
2019-01-18T03:48:35.127Z,98835.98
2019-01-18T03:50:42.593Z,98833.70
2019-01-18T03:52:49.689Z,98830.56
2019-01-18T03:54:56.858Z,98831.92
2019-01-18T03:57:07.286Z,98835.97
2019-01-18T03:59:14.462Z,98831.62
2019-01-18T04:01:22.354Z,98825.91
2019-01-18T04:03:29.651Z,98827.48
2019-01-18T04:05:36.960Z,98827.17
2019-01-18T04:07:44.205Z,98827.17
2019-01-18T04:09:52.003Z,98835.29
2019-01-18T04:12:00.406Z,98836.64
2019-01-18T04:14:08.561Z,98837.78
2019-01-18T04:16:17.781Z,98843.05
2019-01-18T04:18:24.990Z,98843.25
2019-01-18T04:20:32.993Z,98847.00
2019-01-18T04:22:41.395Z,98851.58
2019-01-18T04:24:48.948Z,98837.02
2019-01-18T04:26:57.033Z,98862.52
2019-01-18T04:29:04.554Z,98852.80
2019-01-18T04:31:11.916Z,98856.67
2019-01-18T04:33:19.501Z,98856.81
2019-01-18T04:35:26.679Z,98858.52
2019-01-18T04:37:35.360Z,98858.81
2019-01-18T04:40:17.896Z,98864.38
2019-01-18T04:43:06.113Z,98865.98
2019-01-18T04:47:59.090Z,98871.19
2019-01-18T04:50:07.071Z,98879.10
2019-01-18T04:52:14.862Z,98882.88
2019-01-18T04:54:30.951Z,98882.39
2019-01-18T04:56:38.485Z,98879.70
2019-01-18T04:58:46.188Z,98880.55
2019-01-18T05:00:53.789Z,98887.22
2019-01-18T05:03:01.058Z,98900.26
2019-01-18T05:05:08.349Z,98893.88
2019-01-18T05:07:15.762Z,98903.94
2019-01-18T05:09:23.395Z,98907.20
2019-01-18T05:11:30.619Z,98898.05
2019-01-18T05:13:38.171Z,98907.95
2019-01-18T05:15:45.602Z,98912.40
2019-01-18T05:17:52.613Z,98904.11
2019-01-18T05:19:59.904Z,98908.16
2019-01-18T05:22:07.345Z,98918.88
2019-01-18T05:24:14.648Z,98913.78
2019-01-18T05:26:22.201Z,98907.86
2019-01-18T05:28:30.199Z,98913.53
2019-01-18T05:30:37.546Z,98914.27
2019-01-18T05:32:45.038Z,98912.98
2019-01-18T05:34:52.289Z,98904.41
2019-01-18T05:36:59.691Z,98920.77
2019-01-18T05:39:08.216Z,98914.95
2019-01-18T05:41:16.373Z,98913.97
2019-01-18T05:43:23.567Z,98913.30
2019-01-18T05:45:30.894Z,98908.94
2019-01-18T05:47:38.383Z,98914.38
2019-01-18T05:49:46.027Z,98915.12
2019-01-18T05:51:54.110Z,98921.36
2019-01-18T05:54:21.015Z,98909.33
2019-01-18T05:56:28.752Z,98907.36
2019-01-18T05:58:36.073Z,98900.12
2019-01-18T06:00:55.376Z,98904.05
2019-01-18T06:03:00.610Z,98898.80
2019-01-18T06:05:09.868Z,98895.63
2019-01-18T06:07:16.935Z,98897.73
2019-01-18T06:09:24.226Z,98900.04
2019-01-18T06:11:31.716Z,98898.53
2019-01-18T06:13:38.870Z,98898.79
2019-01-18T06:15:46.874Z,98903.37
2019-01-18T06:17:54.080Z,98892.66
2019-01-18T06:20:01.447Z,98895.17
2019-01-18T06:22:08.744Z,98886.72
2019-01-18T06:24:16.110Z,98892.32
2019-01-18T06:26:23.624Z,98886.76
2019-01-18T06:28:31.132Z,98891.32
2019-01-18T06:30:38.972Z,98884.49
2019-01-18T06:38:27.513Z,98899.11
2019-01-18T06:40:34.885Z,98897.30
2019-01-18T06:42:42.036Z,98896.31
2019-01-18T06:44:49.244Z,98902.68
2019-01-18T06:46:56.823Z,98903.52
2019-01-18T06:49:05.483Z,98902.70
2019-01-18T06:51:12.673Z,98905.84
2019-01-18T06:53:19.875Z,98904.59
2019-01-18T06:55:27.141Z,98907.30
2019-01-18T06:57:34.229Z,98909.70
2019-01-18T06:59:42.402Z,98905.86
2019-01-18T07:01:50.673Z,98910.87
2019-01-18T07:03:58.987Z,98911.30
2019-01-18T07:06:06.016Z,98906.72
2019-01-18T07:08:13.284Z,98914.73
2019-01-18T07:10:21.717Z,98916.17
2019-01-18T07:12:29.596Z,98919.18
2019-01-18T07:14:36.952Z,98923.85
2019-01-18T07:16:44.395Z,98927.48
2019-01-18T07:18:52.060Z,98928.91
2019-01-18T07:20:59.957Z,98922.80
2019-01-18T07:23:08.917Z,98926.80
2019-01-18T07:25:24.940Z,98931.02
2019-01-18T07:27:32.728Z,98929.72
2019-01-18T07:29:40.761Z,98925.72
2019-01-18T07:31:47.927Z,98943.41
2019-01-18T07:33:55.298Z,98941.80
2019-01-18T07:36:02.627Z,98943.69
2019-01-18T07:38:09.977Z,98938.12
2019-01-18T07:40:17.252Z,98943.23
2019-01-18T07:42:24.426Z,98945.21
2019-01-18T07:44:32.401Z,98953.14
2019-01-18T07:46:39.955Z,98947.44
2019-01-18T07:48:47.612Z,98953.86
2019-01-18T07:50:55.332Z,98958.34
2019-01-18T07:53:02.493Z,98961.05
2019-01-18T07:55:10.264Z,98962.83
2019-01-18T07:57:17.464Z,98971.45
2019-01-18T07:59:24.789Z,98974.58
2019-01-18T08:01:32.280Z,98971.97
2019-01-18T08:03:39.514Z,98970.00
2019-01-18T08:05:46.771Z,98971.77
2019-01-18T08:07:54.146Z,98972.90
2019-01-18T08:10:02.138Z,98973.33
2019-01-18T08:12:09.494Z,98978.63
2019-01-18T08:14:17.117Z,98982.89
2019-01-18T08:16:24.378Z,98977.89
2019-01-18T08:18:31.592Z,98982.66
2019-01-18T08:20:38.870Z,98972.78
2019-01-18T08:22:46.356Z,98986.72
2019-01-18T08:24:53.645Z,98988.16
2019-01-18T08:27:01.047Z,98993.13
2019-01-18T08:29:08.953Z,98993.44
2019-01-18T08:31:16.353Z,98999.13
2019-01-18T08:33:23.627Z,98997.04
2019-01-18T08:35:32.583Z,98990.11
2019-01-18T08:37:39.717Z,98997.41
2019-01-18T08:39:47.162Z,98997.63
2019-01-18T08:41:54.476Z,98995.45
2019-01-18T08:44:02.346Z,99005.65
2019-01-18T08:46:11.752Z,98997.14
2019-01-18T08:48:19.731Z,98994.92
2019-01-18T08:50:26.979Z,98999.92
2019-01-18T08:52:34.900Z,98998.14
2019-01-18T08:54:42.331Z,99004.92
2019-01-18T08:56:49.556Z,98998.16
2019-01-18T08:58:56.920Z,99006.88
2019-01-18T09:01:04.403Z,99009.91
2019-01-18T09:03:11.794Z,99017.89
2019-01-18T09:05:21.102Z,99015.52
2019-01-18T09:07:28.503Z,99016.80
2019-01-18T09:09:36.029Z,99006.59
2019-01-18T09:11:43.234Z,99004.30
2019-01-18T09:13:50.281Z,99006.96
2019-01-18T09:15:58.183Z,98998.84
2019-01-18T09:18:05.877Z,98996.23
2019-01-18T09:20:19.201Z,98996.97
2019-01-18T09:22:26.823Z,98995.75
2019-01-18T09:24:34.398Z,98993.27
2019-01-18T09:26:41.698Z,98996.09
2019-01-18T09:28:49.259Z,98994.44
2019-01-18T09:30:57.144Z,98995.70
2019-01-18T09:33:05.449Z,98992.74
2019-01-18T09:35:13.882Z,98999.19
2019-01-18T09:37:21.118Z,99006.77
2019-01-18T09:39:28.461Z,98995.04
2019-01-18T09:41:35.749Z,98994.41
2019-01-18T09:43:43.145Z,98997.86
2019-01-18T09:45:50.566Z,98988.08
2019-01-18T09:47:59.084Z,98990.38
2019-01-18T09:50:07.403Z,98990.58
2019-01-18T09:52:14.657Z,98993.06
2019-01-18T09:54:22.744Z,98990.88
2019-01-18T09:56:30.057Z,98993.70
2019-01-18T09:58:37.802Z,98990.59
2019-01-18T10:00:48.073Z,98995.34
2019-01-18T10:02:55.359Z,98997.88
2019-01-18T10:05:02.446Z,98981.93
2019-01-18T10:07:09.607Z,98983.80
2019-01-18T10:09:16.974Z,98992.08
2019-01-18T10:11:24.385Z,98993.30
2019-01-18T10:13:32.042Z,98998.78
2019-01-18T10:15:44.440Z,98998.39
2019-01-18T10:17:52.378Z,98988.02
2019-01-18T10:19:59.567Z,98992.30
2019-01-18T10:22:07.274Z,98995.35
2019-01-18T10:24:14.567Z,98997.02
2019-01-18T10:26:22.761Z,99003.56
2019-01-18T10:28:30.083Z,98999.02
2019-01-18T10:30:37.327Z,98992.22
2019-01-18T10:32:44.605Z,98987.16
2019-01-18T10:34:52.093Z,98982.05
2019-01-18T10:36:59.430Z,98976.77
2019-01-18T10:39:10.326Z,98979.77
2019-01-18T10:41:17.956Z,98986.95
2019-01-18T10:43:25.202Z,98992.03
2019-01-18T10:45:32.307Z,98989.94
2019-01-18T10:47:40.429Z,98990.66
2019-01-18T10:49:48.510Z,98993.57
2019-01-18T10:51:55.889Z,98983.19
2019-01-18T10:54:02.962Z,98986.72
2019-01-18T10:56:10.127Z,98979.62
2019-01-18T10:58:17.353Z,98973.38
2019-01-18T11:00:29.446Z,98970.45
2019-01-18T11:02:36.801Z,98969.48
2019-01-18T11:04:43.920Z,98972.63
2019-01-18T11:06:52.059Z,98964.66
2019-01-18T11:08:59.258Z,98964.35
2019-01-18T11:11:06.376Z,98963.86
2019-01-18T11:13:13.595Z,98970.53
2019-01-18T11:15:22.802Z,98960.52
2019-01-18T11:17:29.978Z,98969.46
2019-01-18T11:19:37.327Z,98984.32
2019-01-18T11:21:45.640Z,98992.45
2019-01-18T11:23:52.767Z,98993.38
2019-01-18T11:25:59.937Z,98991.52
2019-01-18T11:28:07.460Z,98984.03
2019-01-18T11:30:17.036Z,98994.13
2019-01-18T11:32:24.199Z,98993.28
2019-01-18T11:34:31.547Z,98978.63
2019-01-18T11:36:38.804Z,98980.90
2019-01-18T11:38:45.910Z,98983.41
2019-01-18T11:40:53.509Z,98982.58
2019-01-18T11:43:00.697Z,98979.05
2019-01-18T11:45:08.801Z,98977.06
2019-01-18T11:47:17.214Z,98984.86
2019-01-18T11:49:25.020Z,98983.19
2019-01-18T11:51:32.333Z,98984.55
2019-01-18T11:53:40.884Z,98978.52
2019-01-18T11:55:48.342Z,98989.30
2019-01-18T11:57:56.060Z,98985.19
2019-01-18T12:00:03.466Z,98996.42
2019-01-18T12:02:15.097Z,99002.00
2019-01-18T12:04:20.417Z,99007.57
2019-01-18T12:06:28.198Z,99013.69
2019-01-18T12:08:35.521Z,99020.58
2019-01-18T12:10:42.757Z,99036.00
2019-01-18T12:12:50.010Z,99033.43
2019-01-18T12:14:58.076Z,99024.22
2019-01-18T12:17:07.148Z,99027.06
2019-01-18T12:19:14.412Z,99035.27
2019-01-18T12:21:21.707Z,99041.32
2019-01-18T12:23:29.128Z,99043.50
2019-01-18T12:25:37.149Z,99045.89
2019-01-18T12:27:45.094Z,99056.30
2019-01-18T12:29:52.415Z,99072.79
2019-01-18T12:31:59.809Z,99078.83
2019-01-18T12:34:06.988Z,99093.16
2019-01-18T12:36:14.522Z,99089.16
2019-01-18T12:38:22.075Z,99090.70
2019-01-18T12:40:30.131Z,99093.08
2019-01-18T12:42:37.475Z,99072.66
2019-01-18T12:44:45.186Z,99066.06
2019-01-18T12:46:52.414Z,99079.19
2019-01-18T12:48:59.971Z,99077.81
2019-01-18T12:51:07.330Z,99093.06
2019-01-18T12:53:14.575Z,99090.72
2019-01-18T12:55:21.782Z,99092.06
2019-01-18T12:57:29.152Z,99086.70
2019-01-18T12:59:36.366Z,99075.94
2019-01-18T13:01:43.773Z,99082.64
2019-01-18T13:03:51.105Z,99080.31
2019-01-18T13:05:58.391Z,99074.14
2019-01-18T13:08:06.252Z,99066.54
2019-01-18T13:10:14.136Z,99073.66
2019-01-18T13:12:22.301Z,99086.01
2019-01-18T13:14:29.522Z,99096.03
2019-01-18T13:16:42.267Z,99101.94
2019-01-18T13:18:54.581Z,99101.30
2019-01-18T13:21:02.898Z,99100.58
2019-01-18T13:23:10.192Z,99104.17
2019-01-18T13:25:17.495Z,99092.20
2019-01-18T13:27:24.804Z,99093.35
2019-01-18T13:29:32.171Z,99100.51
2019-01-18T13:31:39.670Z,99112.77
2019-01-18T13:33:47.885Z,99113.17
2019-01-18T13:35:55.103Z,99115.43
2019-01-18T13:38:02.395Z,99106.64
2019-01-18T13:40:13.130Z,99099.33
2019-01-18T13:42:20.466Z,99099.88
2019-01-18T13:44:27.850Z,99109.37
2019-01-18T13:46:35.367Z,99112.53
2019-01-18T13:48:42.824Z,99132.05
2019-01-18T13:50:50.213Z,99130.94
2019-01-18T13:52:57.488Z,99136.95
2019-01-18T13:55:04.804Z,99146.13
2019-01-18T13:57:12.783Z,99151.38
2019-01-18T13:59:20.628Z,99152.03
2019-01-18T14:04:21.489Z,99164.39
2019-01-18T14:06:36.758Z,99148.16
2019-01-18T14:09:16.233Z,99145.55
2019-01-18T14:11:42.015Z,99170.14
2019-01-18T14:17:10.438Z,99185.70
2019-01-18T14:19:49.774Z,99189.36
2019-01-18T14:25:17.133Z,99194.70
2019-01-18T14:27:21.034Z,99189.90
2019-01-18T14:30:35.863Z,99188.87
2019-01-18T14:33:52.498Z,99198.98
2019-01-18T14:36:22.016Z,99199.36
2019-01-18T14:39:03.727Z,99185.03
2019-01-18T14:41:19.322Z,99195.50
2019-01-18T14:44:13.534Z,99195.83
2019-01-18T14:49:32.661Z,99171.98
2019-01-18T14:52:05.648Z,99174.59
2019-01-18T14:54:18.973Z,99172.90
2019-01-18T14:59:04.330Z,99197.27
2019-01-18T15:01:16.563Z,99193.87
2019-01-18T15:03:28.682Z,99199.55
2019-01-18T15:05:39.103Z,99210.63
2019-01-18T15:07:46.376Z,99199.80
2019-01-18T15:10:38.684Z,99201.83
2019-01-18T15:12:34.591Z,99209.66
2019-01-18T15:15:14.629Z,99206.30
2019-01-18T15:17:22.890Z,99207.77
2019-01-18T15:19:30.181Z,99222.78
2019-01-18T15:21:37.503Z,99223.49
2019-01-18T15:23:44.939Z,99226.44
2019-01-18T15:25:52.418Z,99224.89
2019-01-18T15:28:00.964Z,99223.34
2019-01-18T15:30:09.600Z,99225.23
2019-01-18T15:32:17.202Z,99235.86
2019-01-18T15:34:34.446Z,99232.05
2019-01-18T15:36:54.887Z,99230.76
2019-01-18T15:39:36.395Z,99227.33
2019-01-18T15:42:04.832Z,99232.89
2019-01-18T15:44:29.381Z,99228.44
2019-01-18T15:46:59.213Z,99230.20
2019-01-18T15:52:17.169Z,99233.91
2019-01-18T15:54:32.365Z,99236.87
2019-01-18T15:56:52.208Z,99233.25
2019-01-18T15:59:35.589Z,99237.03
2019-01-18T16:02:10.562Z,99238.60
2019-01-18T16:04:27.748Z,99240.61
2019-01-18T16:06:49.265Z,99200.74
2019-01-18T16:09:03.404Z,99255.58
2019-01-18T16:17:19.103Z,99273.06
2019-01-18T16:19:37.106Z,99282.72
2019-01-18T16:22:01.203Z,99288.59
2019-01-18T16:26:59.817Z,99300.58
2019-01-18T16:32:53.736Z,99294.28
2019-01-18T16:34:53.755Z,99298.67
2019-01-18T16:37:01.134Z,99295.02
2019-01-18T16:39:11.471Z,99287.23
2019-01-18T16:41:24.765Z,99289.25
2019-01-18T16:43:41.485Z,99294.06
2019-01-18T16:46:26.428Z,99297.84
2019-01-18T16:48:34.614Z,99291.39
2019-01-18T16:51:12.427Z,99297.25
2019-01-18T16:53:34.270Z,99295.61
2019-01-18T16:55:42.385Z,99304.17
2019-01-18T16:57:55.592Z,99304.19
2019-01-18T17:00:03.075Z,99304.40
2019-01-18T17:02:28.799Z,99312.09
2019-01-18T17:05:08.057Z,99309.59
2019-01-18T17:07:24.143Z,99304.80
2019-01-18T17:09:38.956Z,99296.09
2019-01-18T17:12:28.864Z,99301.06
2019-01-18T17:23:49.157Z,99317.33
2019-01-18T17:26:18.122Z,99319.30
2019-01-18T17:29:01.839Z,99312.76
2019-01-18T17:31:38.429Z,99298.28
2019-01-18T17:37:24.981Z,99284.98
2019-01-18T17:40:35.084Z,99274.73
2019-01-18T17:43:07.853Z,99277.77
2019-01-18T17:45:54.568Z,99280.30
2019-01-18T17:48:39.333Z,99278.86
2019-01-18T17:52:10.619Z,99277.13
2019-01-18T17:54:17.920Z,99262.83
2019-01-18T17:57:06.017Z,99252.52
2019-01-18T17:59:41.992Z,99252.20
2019-01-18T18:02:34.920Z,99248.75
2019-01-18T18:05:16.118Z,99238.45
2019-01-18T18:08:14.592Z,99226.91
2019-01-18T18:11:20.079Z,99229.63
2019-01-18T18:13:51.963Z,99228.75
2019-01-18T18:16:43.931Z,99230.92
2019-01-18T18:19:31.256Z,99234.38
2019-01-18T18:22:36.943Z,99240.64
2019-01-18T18:24:55.300Z,99236.19
2019-01-18T18:27:32.908Z,99240.24
2019-01-18T18:30:25.562Z,99239.63
2019-01-18T18:33:11.817Z,99233.34
2019-01-18T18:40:40.369Z,99239.67
2019-01-18T18:42:58.125Z,99245.00
2019-01-18T18:44:54.205Z,99232.38
2019-01-18T18:47:44.788Z,99241.63
2019-01-18T18:50:34.864Z,99234.11
2019-01-18T18:53:05.785Z,99221.56
2019-01-18T18:57:48.814Z,99226.02
2019-01-18T18:59:40.098Z,99222.19
2019-01-18T19:02:39.407Z,99231.41
2019-01-18T19:05:18.886Z,99227.74
2019-01-18T19:08:10.441Z,99228.83
2019-01-18T19:11:45.074Z,99234.27
2019-01-18T19:14:34.274Z,99226.73
2019-01-18T19:17:11.778Z,99216.16
2019-01-18T19:23:35.763Z,99212.38
2019-01-18T19:26:26.111Z,99207.35
2019-01-18T19:29:53.540Z,99203.36
2019-01-18T19:32:46.410Z,99191.44
2019-01-18T19:35:44.469Z,99198.84
2019-01-18T19:38:30.513Z,99195.96
2019-01-18T19:41:02.954Z,99187.66
2019-01-18T19:44:19.107Z,99195.50
2019-01-18T19:47:00.359Z,99192.64
2019-01-18T19:49:56.875Z,99192.94
2019-01-18T19:52:54.174Z,99191.42
2019-01-18T19:55:44.331Z,99196.79
2019-01-18T19:58:41.843Z,99194.10
2019-01-18T20:01:30.890Z,99196.29
2019-01-18T20:04:03.927Z,99179.86
2019-01-18T20:13:48.226Z,99142.18
2019-01-18T20:16:51.548Z,99133.92
2019-01-18T20:20:06.968Z,99136.70
2019-01-18T20:22:58.214Z,99134.58
2019-01-18T20:25:53.324Z,99133.94
2019-01-18T20:31:47.111Z,99143.22
2019-01-18T20:38:18.431Z,99151.09
2019-01-18T20:41:03.221Z,99150.30
2019-01-18T20:44:13.053Z,99161.58
2019-01-18T20:47:06.447Z,99162.27
2019-01-18T20:49:48.169Z,99178.34
2019-01-18T20:52:43.364Z,99182.64
2019-01-18T20:55:46.623Z,99169.06
2019-01-18T20:59:04.416Z,99173.84
2019-01-18T21:02:14.330Z,99166.36
2019-01-18T21:08:18.309Z,99169.73
2019-01-18T21:12:51.170Z,99185.64
2019-01-18T21:14:22.285Z,99179.15
2019-01-18T21:17:11.529Z,99166.98
2019-01-18T21:27:06.794Z,99179.77
2019-01-18T21:33:35.745Z,99176.43
2019-01-18T21:36:42.244Z,99175.73
2019-01-18T21:43:00.312Z,99165.06
2019-01-18T21:45:49.216Z,99163.41
2019-01-18T21:48:38.378Z,99167.91
2019-01-18T21:51:26.027Z,99177.43
2019-01-18T21:54:04.569Z,99163.92
2019-01-18T21:56:40.709Z,99149.73
2019-01-18T21:59:24.855Z,99145.31
2019-01-18T22:02:03.500Z,99138.56
2019-01-18T22:07:20.718Z,99139.24
2019-01-18T22:10:33.334Z,99144.09
2019-01-18T22:16:52.738Z,99154.17
2019-01-18T22:22:51.919Z,99147.36
2019-01-18T22:25:31.699Z,99152.45
2019-01-18T22:27:48.493Z,99137.38
2019-01-18T22:30:19.351Z,99134.25
2019-01-18T22:39:03.950Z,99140.90
2019-01-18T22:41:56.494Z,99147.36
2019-01-18T22:45:04.700Z,99137.19
2019-01-18T22:47:46.657Z,99135.48
2019-01-18T22:50:51.342Z,99131.48
2019-01-18T22:53:55.355Z,99133.81
2019-01-18T23:01:31.750Z,99133.11
2019-01-18T23:02:53.853Z,99132.82
2019-01-18T23:05:38.495Z,99123.81
2019-01-18T23:08:20.839Z,99110.56
2019-01-18T23:11:16.744Z,99113.83
2019-01-18T23:13:39.179Z,99113.16
2019-01-18T23:16:35.682Z,99122.69
2019-01-18T23:18:58.627Z,99129.97
2019-01-18T23:21:17.316Z,99128.76
2019-01-18T23:23:52.285Z,99133.75
2019-01-18T23:26:38.280Z,99133.33
2019-01-18T23:29:18.865Z,99141.12
2019-01-18T23:32:04.324Z,99128.89
2019-01-18T23:34:41.056Z,99112.53
2019-01-18T23:37:06.402Z,99092.50
2019-01-18T23:40:06.253Z,99094.08
2019-01-18T23:42:31.995Z,99090.70
2019-01-18T23:45:32.871Z,99091.88
2019-01-18T23:48:03.897Z,99091.52
2019-01-18T23:50:55.164Z,99088.25
2019-01-18T23:53:49.791Z,99078.34
2019-01-18T23:59:29.880Z,99115.70
